Time;durP1;ratioP1;P1;durP2;ratioP2;P2;SDS_P1;SDS_P2;PMS_P1;PMS_P2;Temp;Humidity;BMP_temperature;BMP_pressure;BME280_temperature;BME280_humidity;BME280_pressure;Samples;Min_cycle;Max_cycle;Signal;HPM_P1;HPM_P2
2023/01/20 00:01:18;;;;;;;1.60;0.73;;;;;;;11.88;51.01;102158.50;5012705;28;20110;-59
2023/01/20 00:03:44;;;;;;;1.15;0.40;;;;;;;11.80;51.09;102158.56;5012689;28;20018;-60
2023/01/20 00:06:11;;;;;;;1.65;0.73;;;;;;;11.83;50.73;102163.63;5012451;28;20357;-60
2023/01/20 00:08:38;;;;;;;1.50;0.70;;;;;;;11.56;51.92;102165.00;5012303;28;20026;-60
2023/01/20 00:11:06;;;;;;;1.83;0.55;;;;;;;11.61;51.48;102168.81;5012778;28;20061;-60
2023/01/20 00:13:34;;;;;;;1.55;0.55;;;;;;;11.74;51.13;102165.50;5012192;28;20026;-60
2023/01/20 00:16:08;;;;;;;0.98;0.60;;;;;;;11.62;51.58;102167.78;5012358;28;20739;-60
2023/01/20 00:18:35;;;;;;;2.10;0.70;;;;;;;11.70;52.07;102177.59;5012469;28;20056;-60
2023/01/20 00:21:09;;;;;;;2.17;0.60;;;;;;;11.66;52.23;102173.63;5012510;28;20385;-59
2023/01/20 00:23:36;;;;;;;3.20;0.77;;;;;;;11.77;51.78;102181.25;5009905;28;20314;-60
2023/01/20 00:26:09;;;;;;;1.63;0.63;;;;;;;11.36;52.71;102181.53;5011996;28;20392;-60
2023/01/20 00:28:36;;;;;;;3.90;0.60;;;;;;;11.25;53.47;102184.63;5012105;28;20030;-60
2023/01/20 00:31:20;;;;;;;1.70;0.60;;;;;;;11.63;52.32;102176.66;5012466;28;20034;-60
2023/01/20 00:33:47;;;;;;;1.05;0.43;;;;;;;11.58;52.77;102179.03;5012186;28;20014;-60
2023/01/20 00:36:16;;;;;;;1.40;0.30;;;;;;;11.64;52.08;102178.31;4994343;28;20026;-60
2023/01/20 00:38:43;;;;;;;1.52;0.60;;;;;;;11.54;52.81;102180.41;5011969;28;20026;-59
2023/01/20 00:41:10;;;;;;;1.30;0.70;;;;;;;11.55;52.38;102184.78;5010539;28;20041;-59
2023/01/20 00:43:36;;;;;;;0.75;0.50;;;;;;;11.72;52.12;102185.47;5004236;28;20441;-59
2023/01/20 00:46:03;;;;;;;1.02;0.55;;;;;;;11.80;52.23;102183.53;4992523;28;20042;-58
2023/01/20 00:48:30;;;;;;;1.67;0.60;;;;;;;11.76;52.31;102186.75;5006543;28;20033;-59
2023/01/20 00:50:56;;;;;;;1.73;0.50;;;;;;;11.64;52.59;102189.88;5011386;28;20034;-59
2023/01/20 00:53:23;;;;;;;1.10;0.60;;;;;;;11.69;53.04;102183.97;5011612;28;20116;-59
2023/01/20 00:55:49;;;;;;;0.30;0.30;;;;;;;11.49;53.67;102190.84;5010401;28;20420;-59
2023/01/20 00:58:16;;;;;;;1.67;0.40;;;;;;;11.55;53.52;102187.47;5011477;28;20037;-59
2023/01/20 01:00:42;;;;;;;3.08;0.60;;;;;;;11.55;52.90;102185.59;5011402;28;20080;-59
2023/01/20 01:03:11;;;;;;;0.60;0.50;;;;;;;11.43;54.26;102186.19;5011699;28;20067;-59
2023/01/20 01:05:38;;;;;;;1.70;0.80;;;;;;;11.38;54.68;102184.03;5010977;28;20057;-59
2023/01/20 01:08:04;;;;;;;1.23;0.88;;;;;;;11.32;55.03;102190.94;5011911;28;20037;-59
2023/01/20 01:10:31;;;;;;;1.42;1.05;;;;;;;11.29;55.37;102182.44;5011801;28;20032;-59
2023/01/20 01:13:02;;;;;;;1.20;0.82;;;;;;;11.24;55.51;102176.78;5011555;28;20134;-59
2023/01/20 01:15:28;;;;;;;1.27;0.95;;;;;;;11.20;55.74;102181.66;5011524;28;20045;-59
2023/01/20 01:17:57;;;;;;;0.90;0.80;;;;;;;11.18;56.61;102188.22;5011851;28;20033;-59
2023/01/20 01:20:24;;;;;;;1.20;0.82;;;;;;;11.12;57.03;102184.41;5012089;28;20447;-59
2023/01/20 01:22:50;;;;;;;1.77;0.60;;;;;;;11.04;57.32;102187.09;5011667;28;20427;-59
2023/01/20 01:25:17;;;;;;;1.60;0.88;;;;;;;10.95;57.66;102188.19;5011314;28;20022;-59
2023/01/20 01:27:43;;;;;;;1.55;0.88;;;;;;;10.88;57.66;102187.19;5011534;28;20029;-60
2023/01/20 01:30:10;;;;;;;1.05;0.70;;;;;;;10.82;57.84;102184.19;5011651;28;20022;-60
2023/01/20 01:32:36;;;;;;;3.45;1.08;;;;;;;10.81;58.26;102193.25;5011691;28;20026;-59
2023/01/20 01:35:03;;;;;;;1.80;0.90;;;;;;;10.71;58.57;102181.91;5011757;28;20018;-59
2023/01/20 01:37:29;;;;;;;1.85;0.90;;;;;;;10.62;58.96;102191.00;5011989;28;20535;-60
2023/01/20 01:39:56;;;;;;;3.00;1.10;;;;;;;10.60;59.59;102179.59;5011696;28;20106;-60
2023/01/20 01:42:24;;;;;;;1.52;1.05;;;;;;;10.48;59.86;102175.66;5012316;28;20030;-60
2023/01/20 01:45:09;;;;;;;1.98;0.90;;;;;;;10.51;60.02;102178.00;5011596;28;20049;-59
2023/01/20 01:47:47;;;;;;;2.25;1.00;;;;;;;10.31;60.22;102175.69;5010308;28;20487;-59
2023/01/20 01:50:20;;;;;;;2.70;0.95;;;;;;;10.26;60.14;102183.41;5011445;28;20034;-59
2023/01/20 01:52:49;;;;;;;1.48;0.65;;;;;;;10.22;61.03;102179.38;5011002;28;20049;-59
2023/01/20 01:55:18;;;;;;;0.73;0.73;;;;;;;10.10;61.21;102183.41;5010353;28;20029;-59
2023/01/20 01:57:45;;;;;;;1.90;0.80;;;;;;;10.04;61.52;102184.06;5010247;28;20029;-59
2023/01/20 02:00:11;;;;;;;1.92;1.10;;;;;;;9.89;61.54;102186.63;5010181;28;20543;-60
2023/01/20 02:02:38;;;;;;;1.83;1.20;;;;;;;9.77;62.07;102185.28;4988379;28;20404;-60
2023/01/20 02:05:05;;;;;;;2.38;1.70;;;;;;;9.66;62.96;102190.94;5009909;28;20495;-60
2023/01/20 02:07:32;;;;;;;3.30;1.60;;;;;;;9.61;63.20;102193.31;4992980;28;20105;-60
2023/01/20 02:10:00;;;;;;;2.42;1.27;;;;;;;9.61;63.43;102194.16;5010561;28;20037;-60
2023/01/20 02:12:28;;;;;;;3.05;1.52;;;;;;;9.49;63.53;102190.09;5010106;28;20053;-60
2023/01/20 02:14:58;;;;;;;3.20;1.48;;;;;;;9.50;63.65;102191.81;5009901;28;20026;-60
2023/01/20 02:17:33;;;;;;;1.55;1.30;;;;;;;9.45;63.91;102197.66;5012011;28;20455;-60
2023/01/20 02:20:02;;;;;;;;;;;;;;;9.42;63.88;102194.47;5005680;28;20117;-60
2023/01/20 02:22:40;;;;;;;2.42;1.30;;;;;;;9.34;64.26;102199.81;4994059;28;19914;-60
2023/01/20 02:25:12;;;;;;;2.22;1.58;;;;;;;9.15;64.87;102204.41;4993731;28;20054;-60
2023/01/20 02:28:08;;;;;;;3.53;1.60;;;;;;;9.21;65.13;102203.75;4994068;28;20022;-60
2023/01/20 02:30:58;;;;;;;2.03;1.23;;;;;;;9.15;65.32;102198.25;4451990;23;15899687;-60
2023/01/20 02:33:47;;;;;;;2.67;1.67;;;;;;;9.04;65.45;102217.25;5015087;28;20052;-60
2023/01/20 02:36:40;;;;;;;2.80;1.40;;;;;;;8.98;66.09;102208.03;5013879;28;20084;-60
2023/01/20 02:39:18;;;;;;;3.53;1.50;;;;;;;8.87;66.46;102211.84;5014599;28;20030;-61
2023/01/20 02:41:56;;;;;;;2.95;1.52;;;;;;;8.85;66.54;102207.69;5028092;28;20033;-58
2023/01/20 02:44:35;;;;;;;3.03;1.63;;;;;;;8.90;66.86;102213.38;5034016;28;20064;-59
2023/01/20 02:47:14;;;;;;;3.50;1.48;;;;;;;8.61;68.36;102222.59;5033406;28;20037;-60
2023/01/20 02:50:02;;;;;;;5.00;1.80;;;;;;;8.70;67.76;102221.63;5026710;28;20041;-61
2023/01/20 02:52:36;;;;;;;2.13;1.60;;;;;;;8.70;68.03;102221.63;5014173;28;20033;-61
2023/01/20 02:55:18;;;;;;;5.07;1.60;;;;;;;8.71;68.38;102223.28;5016914;28;20022;-60
2023/01/20 02:57:55;;;;;;;4.20;1.80;;;;;;;8.54;68.86;102218.03;5033809;28;20053;-60
2023/01/20 03:00:53;;;;;;;3.53;1.35;;;;;;;8.23;71.32;102223.84;5033876;28;20388;-60
2023/01/20 03:03:27;;;;;;;2.80;1.73;;;;;;;8.47;70.51;102212.50;5026500;28;20033;-60
2023/01/20 03:05:57;;;;;;;1.98;1.35;;;;;;;8.31;70.79;102217.72;5030918;28;20055;-59
2023/01/20 03:08:28;;;;;;;6.10;1.70;;;;;;;8.40;70.81;102211.47;5033553;28;20048;-61
2023/01/20 03:11:01;;;;;;;3.22;1.50;;;;;;;8.40;70.13;102216.81;5020095;28;20105;-61
2023/01/20 03:13:46;;;;;;;3.03;1.38;;;;;;;8.15;70.85;102219.25;4995016;28;20468;-59
2023/01/20 03:16:21;;;;;;;2.20;1.67;;;;;;;8.14;70.71;102216.75;4993736;28;20030;-59
2023/01/20 03:18:47;;;;;;;;;;;;;;;8.11;70.69;102217.94;4994292;28;20113;-59
2023/01/20 03:21:14;;;;;;;2.90;2.00;;;;;;;8.03;70.72;102219.69;4993937;28;19914;-59
2023/01/20 03:23:46;;;;;;;2.40;1.80;;;;;;;7.93;71.91;102227.78;4994841;28;20480;-59
2023/01/20 03:26:15;;;;;;;4.97;2.33;;;;;;;7.81;71.97;102227.19;4993515;28;20031;-60
2023/01/20 03:28:43;;;;;;;2.40;1.75;;;;;;;7.81;71.46;102218.34;4993041;28;20365;-60
2023/01/20 03:31:20;;;;;;;3.50;1.90;;;;;;;7.74;72.01;102214.63;4993572;28;20038;-60
2023/01/20 03:33:48;;;;;;;3.28;1.70;;;;;;;7.68;71.75;102216.91;4994419;28;20128;-60
2023/01/20 03:36:16;;;;;;;3.53;2.03;;;;;;;7.72;71.82;102219.25;4993470;28;20030;-60
2023/01/20 03:38:44;;;;;;;2.55;1.70;;;;;;;7.57;72.39;102222.47;4993433;28;20047;-60
2023/01/20 03:41:29;;;;;;;4.72;1.85;;;;;;;7.62;72.58;102228.19;4993929;28;20030;-60
2023/01/20 03:44:27;;;;;;;3.97;2.17;;;;;;;7.55;73.34;102234.25;4993516;28;20026;-60
2023/01/20 03:47:08;;;;;;;2.97;2.20;;;;;;;7.50;73.47;102240.06;4994768;28;20026;-60
2023/01/20 03:49:50;;;;;;;7.18;2.20;;;;;;;7.58;73.24;102239.31;5012392;28;20100;-60
2023/01/20 03:52:39;;;;;;;3.42;1.85;;;;;;;7.55;72.78;102237.78;5019328;28;20434;-60
2023/01/20 03:55:14;;;;;;;3.78;1.98;;;;;;;7.49;73.19;102235.72;5012808;28;20030;-60
2023/01/20 03:58:28;;;;;;;4.88;2.15;;;;;;;7.37;73.95;102244.91;5012804;28;20025;-60
2023/01/20 04:00:56;;;;;;;4.80;1.90;;;;;;;7.49;73.43;102241.03;4952376;29;20131;-60
2023/01/20 04:03:27;;;;;;;5.20;1.92;;;;;;;7.38;73.20;102244.78;4998841;28;20101;-59
2023/01/20 04:05:57;;;;;;;2.53;1.83;;;;;;;7.31;73.32;102249.00;4992707;28;20022;-60
2023/01/20 04:08:27;;;;;;;4.03;2.00;;;;;;;7.40;73.15;102244.63;4993059;28;20022;-60
2023/01/20 04:10:57;;;;;;;5.72;2.63;;;;;;;7.21;73.89;102242.06;5008645;28;20022;-60
2023/01/20 04:13:23;;;;;;;6.03;2.45;;;;;;;7.14;74.28;102239.16;5012744;28;20530;-61
2023/01/20 04:15:50;;;;;;;6.88;2.28;;;;;;;7.07;74.51;102238.09;4995361;28;20037;-61
2023/01/20 04:18:19;;;;;;;5.03;2.40;;;;;;;7.20;74.89;102235.06;4993179;28;20022;-60
2023/01/20 04:20:52;;;;;;;6.57;2.40;;;;;;;6.99;76.39;102243.31;4993009;28;20114;-60
2023/01/20 04:23:43;;;;;;;5.82;2.85;;;;;;;6.96;77.06;102239.13;4992857;28;20117;-60
2023/01/20 04:26:09;;;;;;;3.30;2.55;;;;;;;7.01;76.73;102233.38;4992329;28;20026;-60
2023/01/20 04:28:35;;;;;;;7.15;2.88;;;;;;;6.98;76.45;102237.16;4992785;28;20038;-60
2023/01/20 04:31:01;;;;;;;6.00;2.33;;;;;;;6.94;76.61;102235.78;4993161;28;20046;-61
2023/01/20 04:33:28;;;;;;;6.00;2.55;;;;;;;6.95;76.44;102234.81;4992600;28;20058;-61
2023/01/20 04:35:54;;;;;;;4.05;2.33;;;;;;;6.81;77.50;102236.13;4992639;28;20049;-61
2023/01/20 04:38:20;;;;;;;3.60;1.80;;;;;;;6.84;77.62;102237.66;4996053;28;20357;-61
2023/01/20 04:40:46;;;;;;;6.47;2.53;;;;;;;6.81;77.63;102229.97;5009199;28;20476;-61
2023/01/20 04:43:12;;;;;;;4.50;2.30;;;;;;;6.89;78.29;102240.72;5012609;28;20632;-58
2023/01/20 04:45:40;;;;;;;4.85;2.10;;;;;;;6.92;78.33;102226.28;5011728;28;20040;-58
2023/01/20 04:48:08;;;;;;;5.45;2.30;;;;;;;6.95;78.39;102231.31;4998200;28;20033;-60
2023/01/20 04:50:38;;;;;;;5.28;2.05;;;;;;;7.03;77.87;102239.38;4998920;28;20037;-61
2023/01/20 04:53:04;;;;;;;3.90;1.95;;;;;;;6.98;78.03;102236.31;5012224;28;20104;-61
2023/01/20 04:55:34;;;;;;;3.88;2.42;;;;;;;6.94;77.36;102235.78;5011811;28;20025;-60
2023/01/20 04:58:00;;;;;;;3.90;1.92;;;;;;;6.90;77.42;102245.06;5029817;23;20049;-61
2023/01/20 05:00:27;;;;;;;2.90;1.70;;;;;;;6.91;76.56;102244.06;5030901;28;20108;-61
2023/01/20 05:02:57;;;;;;;4.57;1.85;;;;;;;6.95;76.23;102248.13;5030863;28;20109;-60
2023/01/20 05:05:24;;;;;;;5.47;2.05;;;;;;;6.90;76.19;102239.72;5030547;28;20060;-60
2023/01/20 05:07:54;;;;;;;4.25;2.13;;;;;;;7.07;75.53;102246.94;5025884;28;20084;-60
2023/01/20 05:10:20;;;;;;;6.78;2.63;;;;;;;7.10;75.21;102238.63;5010880;28;20041;-60
2023/01/20 05:12:47;;;;;;;4.72;2.47;;;;;;;6.99;74.98;102241.50;5011842;28;20033;-60
2023/01/20 05:15:13;;;;;;;7.65;2.42;;;;;;;6.84;75.41;102245.66;5010517;28;20018;-60
2023/01/20 05:17:39;;;;;;;4.10;2.28;;;;;;;6.93;74.95;102244.75;5009829;28;20503;-60
2023/01/20 05:20:06;;;;;;;8.90;2.70;;;;;;;7.00;74.57;102258.31;5010674;28;20480;-60
2023/01/20 05:22:32;;;;;;;3.90;2.55;;;;;;;6.85;74.57;102257.97;5011816;28;20069;-61
2023/01/20 05:24:59;;;;;;;6.18;2.60;;;;;;;6.95;73.74;102261.44;5010382;28;20037;-60
2023/01/20 05:27:25;;;;;;;3.90;2.30;;;;;;;6.88;73.22;102262.97;5011621;28;20102;-60
2023/01/20 05:29:51;;;;;;;4.72;2.28;;;;;;;6.97;72.28;102274.59;5009789;28;20052;-60
2023/01/20 05:32:18;;;;;;;4.18;2.40;;;;;;;6.95;71.79;102272.06;5011451;28;20476;-60
2023/01/20 05:34:44;;;;;;;3.75;2.60;;;;;;;6.82;72.98;102264.41;5010049;28;21031;-60
2023/01/20 05:37:10;;;;;;;5.03;2.25;;;;;;;6.66;73.27;102263.34;5011529;28;20104;-60
2023/01/20 05:39:36;;;;;;;3.40;2.35;;;;;;;6.63;73.32;102274.28;5008956;28;20033;-60
2023/01/20 05:42:03;;;;;;;3.22;2.05;;;;;;;6.44;73.74;102268.06;4996887;28;20026;-60
2023/01/20 05:44:29;;;;;;;5.53;2.08;;;;;;;6.41;73.69;102273.66;4992905;28;20425;-61
2023/01/20 05:46:55;;;;;;;3.58;2.33;;;;;;;6.50;73.07;102270.13;5011560;28;20030;-61
2023/01/20 05:49:21;;;;;;;4.80;2.22;;;;;;;6.44;72.83;102273.38;5011686;28;20538;-60
2023/01/20 05:51:47;;;;;;;3.22;2.47;;;;;;;6.41;72.25;102267.50;5012284;28;20088;-61
2023/01/20 05:54:14;;;;;;;7.05;2.33;;;;;;;6.41;71.69;102275.47;5015475;28;20033;-60
2023/01/20 05:56:40;;;;;;;1.92;1.55;;;;;;;6.31;70.74;102270.16;5012974;28;20033;-61
2023/01/20 05:59:06;;;;;;;2.53;1.90;;;;;;;6.27;70.00;102268.78;4995985;28;20137;-60
2023/01/20 06:01:33;;;;;;;2.65;1.75;;;;;;;6.37;67.35;102268.75;4995586;28;20455;-60
2023/01/20 06:03:59;;;;;;;2.58;1.40;;;;;;;6.24;66.96;102264.59;5007271;28;20480;-60
2023/01/20 06:06:26;;;;;;;2.33;1.63;;;;;;;6.38;65.64;102270.44;5014691;28;20072;-60
2023/01/20 06:08:52;;;;;;;2.60;1.40;;;;;;;6.43;64.90;102274.34;5014985;28;20061;-60
2023/01/20 06:11:19;;;;;;;3.72;1.65;;;;;;;6.52;64.51;102267.31;5015155;28;20476;-61
2023/01/20 06:13:49;;;;;;;3.25;1.50;;;;;;;6.45;64.57;102267.06;5014787;28;20030;-61
2023/01/20 06:16:18;;;;;;;1.92;1.50;;;;;;;6.49;62.64;102264.94;5014355;28;20030;-61
2023/01/20 06:18:44;;;;;;;2.35;1.38;;;;;;;6.57;62.37;102267.72;5014726;28;20558;-60
2023/01/20 06:21:11;;;;;;;1.45;1.02;;;;;;;6.69;61.80;102263.06;5014677;28;20030;-60
2023/01/20 06:23:37;;;;;;;4.60;1.40;;;;;;;6.73;60.87;102272.44;5014720;28;20022;-61
2023/01/20 06:26:07;;;;;;;1.02;0.70;;;;;;;6.81;59.75;102264.56;5014460;28;20033;-61
2023/01/20 06:28:33;;;;;;;1.48;0.70;;;;;;;6.77;59.92;102260.50;5005773;28;20034;-61
2023/01/20 06:31:02;;;;;;;1.05;0.73;;;;;;;6.81;59.10;102261.91;4995016;28;20106;-61
2023/01/20 06:33:28;;;;;;;1.00;0.60;;;;;;;6.89;57.77;102259.34;4994966;28;20026;-60
2023/01/20 06:35:55;;;;;;;2.22;0.70;;;;;;;7.01;56.48;102265.31;4994626;28;20560;-61
2023/01/20 06:38:27;;;;;;;0.68;0.50;;;;;;;7.15;55.22;102256.81;5003972;28;20486;-61
2023/01/20 06:41:02;;;;;;;2.08;0.52;;;;;;;7.45;53.64;102261.00;5014341;28;20055;-61
2023/01/20 06:43:30;;;;;;;1.90;0.38;;;;;;;7.41;53.45;102265.78;5014476;28;20468;-61
2023/01/20 06:46:01;;;;;;;0.32;0.32;;;;;;;7.60;52.80;102264.78;5012657;28;20041;-61
2023/01/20 06:48:28;;;;;;;1.00;0.52;;;;;;;7.76;51.93;102268.59;5014123;28;20491;-61
2023/01/20 06:51:01;;;;;;;0.20;0.20;;;;;;;7.82;50.77;102271.50;5013053;28;20387;-61
2023/01/20 06:53:27;;;;;;;1.48;0.30;;;;;;;7.76;53.37;102273.94;5013775;28;20021;-60
2023/01/20 06:55:57;;;;;;;0.50;0.35;;;;;;;7.85;52.05;102265.88;5023703;23;20419;-61
2023/01/20 06:58:25;;;;;;;0.40;0.20;;;;;;;7.90;51.66;102265.41;5053909;28;20041;-61
2023/01/20 07:00:52;;;;;;;0.82;0.40;;;;;;;7.88;51.48;102272.72;5052196;28;20128;-61
2023/01/20 07:03:19;;;;;;;0.52;0.47;;;;;;;7.81;52.32;102269.81;5053749;28;20072;-60
2023/01/20 07:05:58;;;;;;;0.20;0.20;;;;;;;7.66;53.01;102271.34;5049247;28;20040;-60
2023/01/20 07:08:24;;;;;;;0.30;0.30;;;;;;;7.87;50.95;102265.72;5033479;28;20384;-60
2023/01/20 07:10:50;;;;;;;0.75;0.60;;;;;;;7.88;51.52;102265.59;5032428;28;20428;-60
2023/01/20 07:13:16;;;;;;;0.75;0.60;;;;;;;7.67;51.18;102275.72;5033418;28;20131;-60
2023/01/20 07:15:43;;;;;;;1.40;0.60;;;;;;;7.90;50.96;102271.59;5033386;28;20033;-60
2023/01/20 07:18:09;;;;;;;0.50;0.40;;;;;;;7.74;51.75;102273.25;5033030;28;20048;-60
2023/01/20 07:20:37;;;;;;;0.68;0.50;;;;;;;7.62;52.04;102273.50;5033677;28;20566;-60
2023/01/20 07:23:04;;;;;;;0.45;0.45;;;;;;;7.77;51.45;102273.78;5033226;28;20029;-60
2023/01/20 07:25:30;;;;;;;0.43;0.40;;;;;;;7.66;53.15;102269.53;5032991;28;20056;-60
2023/01/20 07:27:56;;;;;;;0.73;0.50;;;;;;;7.66;53.70;102274.00;5033265;28;20144;-60
2023/01/20 07:30:23;;;;;;;0.65;0.30;;;;;;;7.48;53.70;102265.16;5033189;28;20104;-60
2023/01/20 07:32:50;;;;;;;0.45;0.45;;;;;;;7.63;52.67;102261.84;5033531;28;20104;-60
2023/01/20 07:35:16;;;;;;;2.03;0.73;;;;;;;7.72;52.49;102264.56;5033009;28;20456;-60
2023/01/20 07:37:42;;;;;;;0.82;0.52;;;;;;;7.55;52.91;102268.91;5033090;28;20470;-60
2023/01/20 07:40:09;;;;;;;0.77;0.60;;;;;;;7.32;54.09;102260.50;5033106;28;20033;-60
2023/01/20 07:42:39;;;;;;;0.47;0.40;;;;;;;7.18;54.18;102258.38;5033605;28;20021;-60
2023/01/20 07:45:06;;;;;;;0.52;0.30;;;;;;;6.94;54.34;102267.75;5033193;28;20112;-61
2023/01/20 07:47:32;;;;;;;0.77;0.30;;;;;;;7.07;54.24;102268.22;5032805;28;20061;-61
2023/01/20 07:49:58;;;;;;;0.40;0.20;;;;;;;7.07;53.02;102259.41;5032739;28;20044;-61
2023/01/20 07:52:24;;;;;;;0.25;0.25;;;;;;;7.18;54.07;102269.03;5032860;28;20029;-61
2023/01/20 07:54:51;;;;;;;0.70;0.40;;;;;;;7.07;53.99;102268.22;5032570;28;20021;-61
2023/01/20 07:57:17;;;;;;;0.20;0.20;;;;;;;7.06;53.12;102269.22;5014689;28;20077;-61
2023/01/20 07:59:43;;;;;;;1.08;0.30;;;;;;;6.99;53.29;102260.13;5030374;28;20116;-61
2023/01/20 08:02:09;;;;;;;0.40;0.40;;;;;;;7.16;53.39;102253.16;5032764;28;20136;-61
2023/01/20 08:04:36;;;;;;;0.70;0.30;;;;;;;7.36;51.96;102260.06;5049711;28;20387;-61
2023/01/20 08:07:02;;;;;;;0.20;0.20;;;;;;;7.46;51.28;102253.84;5052466;28;20052;-61
2023/01/20 08:09:28;;;;;;;0.20;0.20;;;;;;;7.51;50.81;102257.72;5052288;28;20037;-61
2023/01/20 08:11:55;;;;;;;0.60;0.30;;;;;;;7.72;50.16;102251.25;5052329;28;20471;-60
2023/01/20 08:14:21;;;;;;;0.20;0.20;;;;;;;7.72;50.34;102268.09;5051781;28;20025;-61
2023/01/20 08:16:47;;;;;;;0.45;0.20;;;;;;;7.79;50.22;102274.47;5046140;28;20108;-61
2023/01/20 08:19:13;;;;;;;0.85;0.30;;;;;;;7.79;50.52;102279.81;5032143;28;20036;-61
2023/01/20 08:21:39;;;;;;;0.40;0.20;;;;;;;7.81;50.34;102277.81;5032081;28;20033;-61
2023/01/20 08:24:06;;;;;;;0.52;0.40;;;;;;;7.66;50.83;102279.34;5031904;28;20056;-61
2023/01/20 08:26:32;;;;;;;0.20;0.20;;;;;;;7.87;51.16;102281.72;5014101;28;20396;-61
2023/01/20 08:29:05;;;;;;;0.70;0.17;;;;;;;7.62;52.17;102284.16;5032411;28;20034;-61
2023/01/20 08:31:31;;;;;;;0.55;0.28;;;;;;;7.65;52.67;102281.16;5032236;28;20099;-61
2023/01/20 08:33:57;;;;;;;0.63;0.35;;;;;;;7.60;52.35;102280.78;5032120;28;20032;-61
2023/01/20 08:36:27;;;;;;;0.30;0.30;;;;;;;7.62;53.64;102284.16;5031565;28;20025;-61
2023/01/20 08:38:56;;;;;;;0.20;0.15;;;;;;;7.49;54.08;102286.31;5032188;28;20111;-61
2023/01/20 08:41:28;;;;;;;0.85;0.20;;;;;;;7.44;54.29;102285.97;5031816;28;20425;-61
2023/01/20 08:43:54;;;;;;;1.05;0.30;;;;;;;7.36;54.21;102285.88;5031886;28;20029;-61
2023/01/20 08:46:21;;;;;;;1.17;0.40;;;;;;;7.40;54.87;102289.91;5031588;28;20618;-61
2023/01/20 08:48:49;;;;;;;0.80;0.40;;;;;;;7.44;54.71;102282.44;5031817;28;20060;-61
2023/01/20 08:51:19;;;;;;;0.30;0.30;;;;;;;7.44;54.56;102283.31;5031903;28;20029;-61
2023/01/20 08:53:46;;;;;;;0.32;0.25;;;;;;;7.39;55.67;102289.06;5031929;28;20021;-61
2023/01/20 08:56:13;;;;;;;0.73;0.50;;;;;;;7.30;56.08;102279.31;5031237;28;20045;-61
2023/01/20 08:58:39;;;;;;;0.43;0.40;;;;;;;7.27;56.11;102284.91;5031666;28;20037;-61
2023/01/20 09:01:10;;;;;;;1.30;0.60;;;;;;;7.08;56.38;102296.53;5031960;28;20475;-61
2023/01/20 09:03:38;;;;;;;0.35;0.35;;;;;;;6.84;56.77;102283.75;5031602;28;20368;-61
2023/01/20 09:06:06;;;;;;;0.55;0.38;;;;;;;6.97;56.63;102285.22;5031066;28;20037;-61
2023/01/20 09:08:33;;;;;;;0.75;0.55;;;;;;;6.99;56.19;102288.56;5031535;28;20036;-61
2023/01/20 09:11:08;;;;;;;1.17;0.50;;;;;;;6.84;57.34;102283.75;5031566;28;20078;-61
2023/01/20 09:13:34;;;;;;;0.47;0.40;;;;;;;6.96;57.19;102291.53;5031776;28;20025;-61
2023/01/20 09:16:00;;;;;;;0.35;0.35;;;;;;;6.95;56.45;102287.22;5031064;28;20028;-61
2023/01/20 09:18:27;;;;;;;1.00;0.60;;;;;;;6.96;56.81;102291.53;5031483;28;20033;-61
2023/01/20 09:20:53;;;;;;;0.47;0.45;;;;;;;6.82;56.64;102295.50;5031315;28;20491;-61
2023/01/20 09:23:19;;;;;;;1.55;0.50;;;;;;;6.76;57.07;102296.91;5031570;28;20044;-61
2023/01/20 09:25:46;;;;;;;1.73;0.38;;;;;;;6.86;57.05;102297.72;5030920;28;20033;-61
2023/01/20 09:28:13;;;;;;;2.55;0.43;;;;;;;6.82;57.14;102300.81;5035004;28;20379;-61
2023/01/20 09:30:39;;;;;;;0.57;0.38;;;;;;;6.72;57.69;102300.00;5035377;28;20036;-61
2023/01/20 09:33:05;;;;;;;0.95;0.38;;;;;;;6.65;57.28;102302.41;5035659;28;20123;-61
2023/01/20 09:35:31;;;;;;;0.95;0.43;;;;;;;6.87;55.04;102312.72;5035229;28;20033;-61
2023/01/20 09:44:12;;;;;;;0.85;0.60;;;;;;;6.51;54.66;102313.53;5035189;28;20056;-61
2023/01/20 09:47:18;;;;;;;0.43;0.30;;;;;;;6.45;53.78;102317.59;5035141;28;20083;-61
2023/01/20 09:53:03;;;;;;;1.58;0.32;;;;;;;6.71;51.47;102317.81;5035291;28;20490;-61
2023/01/20 09:55:48;;;;;;;0.20;0.20;;;;;;;6.71;51.60;102312.47;5034754;28;20095;-61
2023/01/20 09:58:44;;;;;;;0.20;0.20;;;;;;;6.76;51.62;102309.41;5035244;28;20087;-61
2023/01/20 10:01:35;;;;;;;0.28;0.22;;;;;;;6.93;50.59;102308.63;5034889;28;20056;-61
2023/01/20 10:04:16;;;;;;;0.10;0.10;;;;;;;7.05;50.04;102314.59;5034523;28;20143;-61
2023/01/20 10:06:48;;;;;;;0.25;0.20;;;;;;;6.91;50.88;102323.09;5034902;28;20061;-60
2023/01/20 10:09:32;;;;;;;0.82;0.20;;;;;;;6.94;50.63;102322.78;5034903;28;20554;-61
2023/01/20 10:12:08;;;;;;;0.47;0.20;;;;;;;6.89;51.45;102328.56;5034864;28;20534;-61
2023/01/20 10:14:46;;;;;;;0.30;0.17;;;;;;;6.79;50.75;102331.25;5034491;28;20029;-61
2023/01/20 10:17:28;;;;;;;0.20;0.20;;;;;;;6.89;51.73;102328.56;5034618;28;20052;-61
2023/01/20 10:20:02;;;;;;;0.28;0.20;;;;;;;6.73;53.00;102333.66;5034803;28;20025;-61
2023/01/20 10:22:50;;;;;;;0.93;0.35;;;;;;;6.89;53.13;102333.88;5034588;28;20025;-61
2023/01/20 10:25:36;;;;;;;0.20;0.20;;;;;;;6.75;53.59;102344.97;5034221;28;20033;-61
2023/01/20 10:28:29;;;;;;;0.90;0.30;;;;;;;6.78;53.22;102347.38;5034423;28;20028;-61
2023/01/20 10:30:59;;;;;;;1.88;0.50;;;;;;;6.65;53.28;102342.34;5032987;28;20506;-61
2023/01/20 10:33:29;;;;;;;0.82;0.50;;;;;;;6.71;53.40;102349.72;5034306;28;20029;-61
2023/01/20 10:35:58;;;;;;;0.40;0.30;;;;;;;6.71;52.88;102341.75;5034147;28;20025;-61
2023/01/20 10:38:40;;;;;;;0.88;0.40;;;;;;;6.76;53.28;102349.31;5033641;28;20053;-61
2023/01/20 10:41:21;;;;;;;0.88;0.40;;;;;;;6.57;54.37;102350.19;5034277;28;20365;-61
2023/01/20 10:43:47;;;;;;;0.70;0.50;;;;;;;6.58;54.61;102346.56;5034396;28;20029;-61
2023/01/20 10:46:38;;;;;;;0.73;0.47;;;;;;;6.46;55.39;102348.53;5033798;28;20068;-61
2023/01/20 10:49:07;;;;;;;0.95;0.40;;;;;;;6.39;54.82;102342.13;5034062;28;20030;-61
2023/01/20 10:52:10;;;;;;;0.38;0.25;;;;;;;6.26;55.67;102350.34;5033915;28;20029;-61
2023/01/20 10:54:45;;;;;;;2.83;0.40;;;;;;;6.01;56.30;102351.78;5034059;28;20052;-61
2023/01/20 10:57:14;;;;;;;0.20;0.20;;;;;;;5.87;55.10;102346.81;5033602;28;20315;-61
2023/01/20 10:59:48;;;;;;;1.95;0.68;;;;;;;5.92;55.40;102357.91;5033831;28;20125;-61
2023/01/20 11:02:24;;;;;;;0.52;0.30;;;;;;;5.79;55.89;102350.19;5033989;28;20148;-61
2023/01/20 11:05:01;;;;;;;0.20;0.20;;;;;;;5.90;56.35;102356.34;5033457;28;20415;-61
2023/01/20 11:07:31;;;;;;;0.40;0.20;;;;;;;6.01;55.96;102351.78;5033431;28;20033;-61
2023/01/20 11:10:12;;;;;;;0.20;0.20;;;;;;;5.89;56.06;102339.56;5033340;28;20557;-61
2023/01/20 11:12:41;;;;;;;0.73;0.20;;;;;;;5.91;56.08;102344.75;5033558;28;20029;-61
2023/01/20 11:15:37;;;;;;;1.23;0.22;;;;;;;5.48;57.40;102346.75;5015388;28;20017;-61
2023/01/20 11:18:15;;;;;;;0.55;0.28;;;;;;;5.55;56.71;102339.06;5033246;28;20091;-61
2023/01/20 11:20:46;;;;;;;0.35;0.32;;;;;;;5.49;56.18;102336.97;5033472;28;20044;-61
2023/01/20 11:23:36;;;;;;;0.43;0.30;;;;;;;5.63;55.75;102333.09;5033163;28;20060;-61
2023/01/20 11:26:29;;;;;;;1.48;0.47;;;;;;;5.49;55.27;102337.81;5033072;28;20156;-61
2023/01/20 11:29:01;;;;;;;0.55;0.30;;;;;;;5.46;55.00;102334.59;5033465;28;20041;-61
2023/01/20 11:31:43;;;;;;;0.30;0.30;;;;;;;5.47;55.66;102326.47;5033356;28;20516;-61
2023/01/20 11:34:32;;;;;;;0.30;0.30;;;;;;;5.62;55.98;102320.78;5032833;28;20585;-61
2023/01/20 11:37:04;;;;;;;0.45;0.40;;;;;;;5.74;55.75;102319.69;5032919;28;20079;-61
2023/01/20 11:39:48;;;;;;;0.50;0.20;;;;;;;5.80;56.00;102316.47;5033360;28;20036;-61
2023/01/20 11:42:18;;;;;;;0.77;0.38;;;;;;;5.79;56.19;102320.13;5033069;28;20034;-61
2023/01/20 11:45:03;;;;;;;0.50;0.30;;;;;;;5.73;56.44;102312.69;5032661;28;20029;-61
2023/01/20 11:47:34;;;;;;;0.82;0.30;;;;;;;5.66;56.71;102317.69;5032803;28;20041;-61
2023/01/20 11:50:06;;;;;;;0.70;0.50;;;;;;;5.66;57.55;102316.88;5032279;28;20071;-61
2023/01/20 11:52:35;;;;;;;0.52;0.50;;;;;;;5.62;57.67;102320.78;5032938;28;20025;-61
2023/01/20 11:55:11;;;;;;;1.02;0.50;;;;;;;5.55;57.66;102310.72;5038522;23;20397;-61
2023/01/20 11:58:00;;;;;;;0.50;0.50;;;;;;;5.47;57.98;102302.59;5032664;28;20021;-62
2023/01/20 12:00:41;;;;;;;0.40;0.32;;;;;;;5.56;56.87;102304.44;5032755;28;20056;-61